sensor_id;sensor_type;location;lat;lon;timestamp;P1;durP1;ratioP1;P2;durP2;ratioP2
6374;SDS011;35400;45.472;-122.822;2023-06-22T00:01:17;1.00;;;1.00;;
6374;SDS011;35400;45.472;-122.822;2023-06-22T00:03:45;1.55;;;0.68;;
6374;SDS011;35400;45.472;-122.822;2023-06-22T00:06:12;1.50;;;1.10;;
6374;SDS011;35400;45.472;-122.822;2023-06-22T00:08:39;2.78;;;1.20;;
6374;SDS011;35400;45.472;-122.822;2023-06-22T00:11:06;1.92;;;0.80;;
6374;SDS011;35400;45.472;-122.822;2023-06-22T00:13:33;0.80;;;0.80;;
6374;SDS011;35400;45.472;-122.822;2023-06-22T00:16:00;0.90;;;0.90;;
6374;SDS011;35400;45.472;-122.822;2023-06-22T00:18:29;1.08;;;0.90;;
6374;SDS011;35400;45.472;-122.822;2023-06-22T00:20:57;1.00;;;1.00;;
6374;SDS011;35400;45.472;-122.822;2023-06-22T00:23:25;1.08;;;0.93;;
6374;SDS011;35400;45.472;-122.822;2023-06-22T00:25:52;1.00;;;0.90;;
6374;SDS011;35400;45.472;-122.822;2023-06-22T00:28:19;0.80;;;0.80;;
6374;SDS011;35400;45.472;-122.822;2023-06-22T00:30:48;0.80;;;0.80;;
6374;SDS011;35400;45.472;-122.822;2023-06-22T00:33:15;1.52;;;0.80;;
6374;SDS011;35400;45.472;-122.822;2023-06-22T00:35:42;1.35;;;0.90;;
6374;SDS011;35400;45.472;-122.822;2023-06-22T00:38:09;0.95;;;0.65;;
6374;SDS011;35400;45.472;-122.822;2023-06-22T00:40:36;1.05;;;0.73;;
6374;SDS011;35400;45.472;-122.822;2023-06-22T00:43:03;0.95;;;0.95;;
6374;SDS011;35400;45.472;-122.822;2023-06-22T00:45:30;0.90;;;0.90;;
6374;SDS011;35400;45.472;-122.822;2023-06-22T00:47:58;1.95;;;0.80;;
6374;SDS011;35400;45.472;-122.822;2023-06-22T00:50:26;0.98;;;0.80;;
6374;SDS011;35400;45.472;-122.822;2023-06-22T00:52:57;0.80;;;0.80;;
6374;SDS011;35400;45.472;-122.822;2023-06-22T00:55:26;0.85;;;0.80;;
6374;SDS011;35400;45.472;-122.822;2023-06-22T00:57:54;1.40;;;0.90;;
6374;SDS011;35400;45.472;-122.822;2023-06-22T01:00:24;1.17;;;0.65;;
6374;SDS011;35400;45.472;-122.822;2023-06-22T01:02:52;2.33;;;0.70;;
6374;SDS011;35400;45.472;-122.822;2023-06-22T01:05:20;0.65;;;0.65;;
6374;SDS011;35400;45.472;-122.822;2023-06-22T01:10:16;1.48;;;0.80;;
6374;SDS011;35400;45.472;-122.822;2023-06-22T01:12:56;1.73;;;1.10;;
6374;SDS011;35400;45.472;-122.822;2023-06-22T01:15:45;2.65;;;0.90;;
6374;SDS011;35400;45.472;-122.822;2023-06-22T01:18:17;0.82;;;0.80;;
6374;SDS011;35400;45.472;-122.822;2023-06-22T01:20:46;2.67;;;0.93;;
6374;SDS011;35400;45.472;-122.822;2023-06-22T01:23:20;0.70;;;0.70;;
6374;SDS011;35400;45.472;-122.822;2023-06-22T01:28:40;1.10;;;0.70;;
6374;SDS011;35400;45.472;-122.822;2023-06-22T01:31:19;0.70;;;0.60;;
6374;SDS011;35400;45.472;-122.822;2023-06-22T01:33:53;0.90;;;0.90;;
6374;SDS011;35400;45.472;-122.822;2023-06-22T01:36:29;0.85;;;0.85;;
6374;SDS011;35400;45.472;-122.822;2023-06-22T01:38:57;3.63;;;0.70;;
6374;SDS011;35400;45.472;-122.822;2023-06-22T01:41:25;0.80;;;0.80;;
6374;SDS011;35400;45.472;-122.822;2023-06-22T01:43:53;0.70;;;0.70;;
6374;SDS011;35400;45.472;-122.822;2023-06-22T01:46:21;4.03;;;0.93;;
6374;SDS011;35400;45.472;-122.822;2023-06-22T01:48:49;0.60;;;0.60;;
6374;SDS011;35400;45.472;-122.822;2023-06-22T01:51:17;1.08;;;0.90;;
6374;SDS011;35400;45.472;-122.822;2023-06-22T01:53:44;0.80;;;0.80;;
6374;SDS011;35400;45.472;-122.822;2023-06-22T01:56:15;0.93;;;0.75;;
6374;SDS011;35400;45.472;-122.822;2023-06-22T01:58:47;0.77;;;0.77;;
6374;SDS011;35400;45.472;-122.822;2023-06-22T02:01:49;1.10;;;0.90;;
6374;SDS011;35400;45.472;-122.822;2023-06-22T02:04:44;1.77;;;0.95;;
6374;SDS011;35400;45.472;-122.822;2023-06-22T02:07:15;1.13;;;0.80;;
6374;SDS011;35400;45.472;-122.822;2023-06-22T02:09:45;1.02;;;0.88;;
6374;SDS011;35400;45.472;-122.822;2023-06-22T02:12:17;1.27;;;0.60;;
6374;SDS011;35400;45.472;-122.822;2023-06-22T02:14:47;0.60;;;0.60;;
6374;SDS011;35400;45.472;-122.822;2023-06-22T02:17:16;0.73;;;0.73;;
6374;SDS011;35400;45.472;-122.822;2023-06-22T02:19:44;0.60;;;0.60;;
6374;SDS011;35400;45.472;-122.822;2023-06-22T02:22:11;0.90;;;0.90;;
6374;SDS011;35400;45.472;-122.822;2023-06-22T02:24:43;1.30;;;1.20;;
6374;SDS011;35400;45.472;-122.822;2023-06-22T02:27:10;1.15;;;1.00;;
6374;SDS011;35400;45.472;-122.822;2023-06-22T02:29:37;1.05;;;1.05;;
6374;SDS011;35400;45.472;-122.822;2023-06-22T02:32:03;0.95;;;0.93;;
6374;SDS011;35400;45.472;-122.822;2023-06-22T02:34:31;4.10;;;1.10;;
6374;SDS011;35400;45.472;-122.822;2023-06-22T02:36:59;1.15;;;1.10;;
6374;SDS011;35400;45.472;-122.822;2023-06-22T02:39:28;1.10;;;1.10;;
6374;SDS011;35400;45.472;-122.822;2023-06-22T02:41:55;2.35;;;1.20;;
6374;SDS011;35400;45.472;-122.822;2023-06-22T02:44:22;1.58;;;1.48;;
6374;SDS011;35400;45.472;-122.822;2023-06-22T02:46:48;1.38;;;1.27;;
6374;SDS011;35400;45.472;-122.822;2023-06-22T02:49:16;1.30;;;0.98;;
6374;SDS011;35400;45.472;-122.822;2023-06-22T02:51:46;1.75;;;1.17;;
6374;SDS011;35400;45.472;-122.822;2023-06-22T02:54:16;1.10;;;1.10;;
6374;SDS011;35400;45.472;-122.822;2023-06-22T02:56:45;1.15;;;1.02;;
6374;SDS011;35400;45.472;-122.822;2023-06-22T02:59:12;1.08;;;1.08;;
6374;SDS011;35400;45.472;-122.822;2023-06-22T03:01:39;1.83;;;1.10;;
6374;SDS011;35400;45.472;-122.822;2023-06-22T03:04:13;1.85;;;1.02;;
6374;SDS011;35400;45.472;-122.822;2023-06-22T03:06:41;1.67;;;1.38;;
6374;SDS011;35400;45.472;-122.822;2023-06-22T03:09:08;1.48;;;1.38;;
6374;SDS011;35400;45.472;-122.822;2023-06-22T03:11:35;2.05;;;1.42;;
6374;SDS011;35400;45.472;-122.822;2023-06-22T03:14:02;1.50;;;1.40;;
6374;SDS011;35400;45.472;-122.822;2023-06-22T03:16:29;1.98;;;1.40;;
6374;SDS011;35400;45.472;-122.822;2023-06-22T03:18:57;1.35;;;1.20;;
6374;SDS011;35400;45.472;-122.822;2023-06-22T03:21:25;1.30;;;1.20;;
6374;SDS011;35400;45.472;-122.822;2023-06-22T03:23:55;2.17;;;1.40;;
6374;SDS011;35400;45.472;-122.822;2023-06-22T03:26:22;1.58;;;1.45;;
6374;SDS011;35400;45.472;-122.822;2023-06-22T03:28:52;2.03;;;1.73;;
6374;SDS011;35400;45.472;-122.822;2023-06-22T03:31:19;2.30;;;1.40;;
6374;SDS011;35400;45.472;-122.822;2023-06-22T03:33:47;1.88;;;1.60;;
6374;SDS011;35400;45.472;-122.822;2023-06-22T03:36:15;1.50;;;1.40;;
6374;SDS011;35400;45.472;-122.822;2023-06-22T03:38:46;2.83;;;1.77;;
6374;SDS011;35400;45.472;-122.822;2023-06-22T03:41:15;2.37;;;1.43;;
6374;SDS011;35400;45.472;-122.822;2023-06-22T03:43:42;2.10;;;1.70;;
6374;SDS011;35400;45.472;-122.822;2023-06-22T03:46:09;1.83;;;1.48;;
6374;SDS011;35400;45.472;-122.822;2023-06-22T03:48:36;2.42;;;1.77;;
6374;SDS011;35400;45.472;-122.822;2023-06-22T03:51:03;1.40;;;1.30;;
6374;SDS011;35400;45.472;-122.822;2023-06-22T03:53:30;1.50;;;1.40;;
6374;SDS011;35400;45.472;-122.822;2023-06-22T03:55:57;1.40;;;1.30;;
6374;SDS011;35400;45.472;-122.822;2023-06-22T03:58:24;2.53;;;1.50;;
6374;SDS011;35400;45.472;-122.822;2023-06-22T04:00:51;1.67;;;1.57;;
6374;SDS011;35400;45.472;-122.822;2023-06-22T04:03:19;3.27;;;1.37;;
6374;SDS011;35400;45.472;-122.822;2023-06-22T04:05:46;1.97;;;1.77;;
6374;SDS011;35400;45.472;-122.822;2023-06-22T04:08:13;2.13;;;1.70;;
6374;SDS011;35400;45.472;-122.822;2023-06-22T04:10:40;2.28;;;1.77;;
6374;SDS011;35400;45.472;-122.822;2023-06-22T04:13:08;2.47;;;1.50;;
6374;SDS011;35400;45.472;-122.822;2023-06-22T04:15:35;2.60;;;1.67;;
6374;SDS011;35400;45.472;-122.822;2023-06-22T04:18:02;3.17;;;1.53;;
6374;SDS011;35400;45.472;-122.822;2023-06-22T04:20:30;2.30;;;1.53;;
6374;SDS011;35400;45.472;-122.822;2023-06-22T04:22:58;2.33;;;1.80;;
6374;SDS011;35400;45.472;-122.822;2023-06-22T04:25:25;2.07;;;1.50;;
6374;SDS011;35400;45.472;-122.822;2023-06-22T04:27:52;2.93;;;2.17;;
6374;SDS011;35400;45.472;-122.822;2023-06-22T04:30:19;2.40;;;1.83;;
6374;SDS011;35400;45.472;-122.822;2023-06-22T04:32:46;2.10;;;1.47;;
6374;SDS011;35400;45.472;-122.822;2023-06-22T04:35:22;1.70;;;1.60;;
6374;SDS011;35400;45.472;-122.822;2023-06-22T04:37:52;2.07;;;1.87;;
6374;SDS011;35400;45.472;-122.822;2023-06-22T04:40:23;2.60;;;2.00;;
6374;SDS011;35400;45.472;-122.822;2023-06-22T04:42:50;1.97;;;1.60;;
6374;SDS011;35400;45.472;-122.822;2023-06-22T04:45:19;1.60;;;1.50;;
6374;SDS011;35400;45.472;-122.822;2023-06-22T04:47:46;2.47;;;1.90;;
6374;SDS011;35400;45.472;-122.822;2023-06-22T04:50:14;2.63;;;2.10;;
6374;SDS011;35400;45.472;-122.822;2023-06-22T04:52:41;1.80;;;1.70;;
6374;SDS011;35400;45.472;-122.822;2023-06-22T04:55:08;2.30;;;2.10;;
6374;SDS011;35400;45.472;-122.822;2023-06-22T04:57:35;2.93;;;2.00;;
6374;SDS011;35400;45.472;-122.822;2023-06-22T05:00:05;2.47;;;1.87;;
6374;SDS011;35400;45.472;-122.822;2023-06-22T05:02:38;2.67;;;2.10;;
6374;SDS011;35400;45.472;-122.822;2023-06-22T05:05:06;2.30;;;2.10;;
6374;SDS011;35400;45.472;-122.822;2023-06-22T05:07:34;3.67;;;2.00;;
6374;SDS011;35400;45.472;-122.822;2023-06-22T05:10:01;2.70;;;2.30;;
6374;SDS011;35400;45.472;-122.822;2023-06-22T05:12:30;4.40;;;2.23;;
6374;SDS011;35400;45.472;-122.822;2023-06-22T05:14:59;3.10;;;2.10;;
6374;SDS011;35400;45.472;-122.822;2023-06-22T05:17:27;3.60;;;2.33;;
6374;SDS011;35400;45.472;-122.822;2023-06-22T05:19:53;2.30;;;1.80;;
6374;SDS011;35400;45.472;-122.822;2023-06-22T05:22:21;3.53;;;2.10;;
6374;SDS011;35400;45.472;-122.822;2023-06-22T05:24:48;2.73;;;2.00;;
6374;SDS011;35400;45.472;-122.822;2023-06-22T05:27:15;3.63;;;1.97;;
6374;SDS011;35400;45.472;-122.822;2023-06-22T05:29:41;4.87;;;2.00;;
6374;SDS011;35400;45.472;-122.822;2023-06-22T05:32:09;2.67;;;2.27;;
6374;SDS011;35400;45.472;-122.822;2023-06-22T05:34:35;2.60;;;2.40;;
6374;SDS011;35400;45.472;-122.822;2023-06-22T05:37:02;3.53;;;2.63;;
6374;SDS011;35400;45.472;-122.822;2023-06-22T05:39:29;2.60;;;2.00;;
6374;SDS011;35400;45.472;-122.822;2023-06-22T05:41:56;2.33;;;2.10;;
6374;SDS011;35400;45.472;-122.822;2023-06-22T05:44:23;3.03;;;2.53;;
6374;SDS011;35400;45.472;-122.822;2023-06-22T05:46:50;3.60;;;2.07;;
6374;SDS011;35400;45.472;-122.822;2023-06-22T05:49:16;4.13;;;2.30;;
6374;SDS011;35400;45.472;-122.822;2023-06-22T05:51:43;2.90;;;2.60;;
6374;SDS011;35400;45.472;-122.822;2023-06-22T05:54:10;2.90;;;2.37;;
6374;SDS011;35400;45.472;-122.822;2023-06-22T05:56:39;2.57;;;2.23;;
6374;SDS011;35400;45.472;-122.822;2023-06-22T05:59:06;2.33;;;2.13;;
6374;SDS011;35400;45.472;-122.822;2023-06-22T06:01:32;2.37;;;2.13;;
6374;SDS011;35400;45.472;-122.822;2023-06-22T06:04:02;2.90;;;2.43;;
6374;SDS011;35400;45.472;-122.822;2023-06-22T06:06:30;2.90;;;2.10;;
6374;SDS011;35400;45.472;-122.822;2023-06-22T06:08:56;5.07;;;2.40;;
6374;SDS011;35400;45.472;-122.822;2023-06-22T06:11:25;3.17;;;1.87;;
6374;SDS011;35400;45.472;-122.822;2023-06-22T06:13:51;2.47;;;2.27;;
6374;SDS011;35400;45.472;-122.822;2023-06-22T06:16:19;2.70;;;2.40;;
6374;SDS011;35400;45.472;-122.822;2023-06-22T06:18:46;2.47;;;2.27;;
6374;SDS011;35400;45.472;-122.822;2023-06-22T06:21:14;2.97;;;2.33;;
6374;SDS011;35400;45.472;-122.822;2023-06-22T06:23:41;2.80;;;2.40;;
6374;SDS011;35400;45.472;-122.822;2023-06-22T06:26:08;2.53;;;2.33;;
6374;SDS011;35400;45.472;-122.822;2023-06-22T06:28:35;2.60;;;2.40;;
6374;SDS011;35400;45.472;-122.822;2023-06-22T06:31:02;3.43;;;2.53;;
6374;SDS011;35400;45.472;-122.822;2023-06-22T06:33:33;2.93;;;2.53;;
6374;SDS011;35400;45.472;-122.822;2023-06-22T06:35:59;3.40;;;2.80;;
6374;SDS011;35400;45.472;-122.822;2023-06-22T06:38:29;2.70;;;2.40;;
6374;SDS011;35400;45.472;-122.822;2023-06-22T06:40:57;3.90;;;2.50;;
6374;SDS011;35400;45.472;-122.822;2023-06-22T06:43:25;2.67;;;2.47;;
6374;SDS011;35400;45.472;-122.822;2023-06-22T06:45:52;2.10;;;2.00;;
6374;SDS011;35400;45.472;-122.822;2023-06-22T06:48:19;2.27;;;2.07;;
6374;SDS011;35400;45.472;-122.822;2023-06-22T06:50:45;3.37;;;2.47;;
6374;SDS011;35400;45.472;-122.822;2023-06-22T06:53:13;4.03;;;2.67;;
6374;SDS011;35400;45.472;-122.822;2023-06-22T06:55:40;2.37;;;2.17;;
6374;SDS011;35400;45.472;-122.822;2023-06-22T06:58:06;2.73;;;2.53;;
6374;SDS011;35400;45.472;-122.822;2023-06-22T07:00:35;3.17;;;2.40;;
6374;SDS011;35400;45.472;-122.822;2023-06-22T07:03:03;3.83;;;2.70;;
6374;SDS011;35400;45.472;-122.822;2023-06-22T07:05:29;4.30;;;2.53;;
6374;SDS011;35400;45.472;-122.822;2023-06-22T07:07:56;2.50;;;2.30;;
6374;SDS011;35400;45.472;-122.822;2023-06-22T07:10:23;2.73;;;2.53;;
6374;SDS011;35400;45.472;-122.822;2023-06-22T07:12:50;3.60;;;2.93;;
6374;SDS011;35400;45.472;-122.822;2023-06-22T07:15:17;3.33;;;2.53;;
6374;SDS011;35400;45.472;-122.822;2023-06-22T07:17:43;2.67;;;2.47;;
6374;SDS011;35400;45.472;-122.822;2023-06-22T07:20:10;3.40;;;2.40;;
6374;SDS011;35400;45.472;-122.822;2023-06-22T07:22:38;2.83;;;2.60;;
6374;SDS011;35400;45.472;-122.822;2023-06-22T07:25:05;2.93;;;2.67;;
6374;SDS011;35400;45.472;-122.822;2023-06-22T07:27:36;2.77;;;2.33;;
6374;SDS011;35400;45.472;-122.822;2023-06-22T07:30:09;2.73;;;2.50;;
6374;SDS011;35400;45.472;-122.822;2023-06-22T07:32:37;2.50;;;2.30;;
6374;SDS011;35400;45.472;-122.822;2023-06-22T07:35:03;2.73;;;2.23;;
6374;SDS011;35400;45.472;-122.822;2023-06-22T07:37:30;3.30;;;2.30;;
6374;SDS011;35400;45.472;-122.822;2023-06-22T07:39:59;3.43;;;2.40;;
6374;SDS011;35400;45.472;-122.822;2023-06-22T07:42:26;2.73;;;2.50;;
6374;SDS011;35400;45.472;-122.822;2023-06-22T07:44:53;3.53;;;2.17;;
6374;SDS011;35400;45.472;-122.822;2023-06-22T07:47:20;2.97;;;2.13;;
6374;SDS011;35400;45.472;-122.822;2023-06-22T07:49:50;3.00;;;2.70;;
6374;SDS011;35400;45.472;-122.822;2023-06-22T07:52:20;2.60;;;2.40;;
6374;SDS011;35400;45.472;-122.822;2023-06-22T07:54:47;3.47;;;2.50;;
6374;SDS011;35400;45.472;-122.822;2023-06-22T07:57:13;4.73;;;2.43;;
6374;SDS011;35400;45.472;-122.822;2023-06-22T07:59:41;3.47;;;2.87;;
6374;SDS011;35400;45.472;-122.822;2023-06-22T08:02:07;6.33;;;2.60;;
6374;SDS011;35400;45.472;-122.822;2023-06-22T08:04:35;3.37;;;2.63;;
6374;SDS011;35400;45.472;-122.822;2023-06-22T08:07:02;5.03;;;2.93;;
6374;SDS011;35400;45.472;-122.822;2023-06-22T08:09:30;2.87;;;2.57;;
6374;SDS011;35400;45.472;-122.822;2023-06-22T08:11:58;3.47;;;2.10;;
6374;SDS011;35400;45.472;-122.822;2023-06-22T08:14:25;2.23;;;2.00;;
6374;SDS011;35400;45.472;-122.822;2023-06-22T08:16:53;2.33;;;2.13;;
6374;SDS011;35400;45.472;-122.822;2023-06-22T08:19:19;2.70;;;2.20;;
6374;SDS011;35400;45.472;-122.822;2023-06-22T08:21:46;5.60;;;2.27;;
6374;SDS011;35400;45.472;-122.822;2023-06-22T08:24:13;4.07;;;2.17;;
6374;SDS011;35400;45.472;-122.822;2023-06-22T08:26:40;3.30;;;2.23;;
6374;SDS011;35400;45.472;-122.822;2023-06-22T08:29:07;2.87;;;2.00;;
6374;SDS011;35400;45.472;-122.822;2023-06-22T08:31:34;2.50;;;2.00;;
6374;SDS011;35400;45.472;-122.822;2023-06-22T08:34:01;3.80;;;2.27;;
6374;SDS011;35400;45.472;-122.822;2023-06-22T08:36:28;3.13;;;2.30;;
6374;SDS011;35400;45.472;-122.822;2023-06-22T08:38:58;2.93;;;2.20;;
6374;SDS011;35400;45.472;-122.822;2023-06-22T08:41:28;2.93;;;2.30;;
6374;SDS011;35400;45.472;-122.822;2023-06-22T08:43:55;3.10;;;1.87;;
6374;SDS011;35400;45.472;-122.822;2023-06-22T08:46:23;3.40;;;2.17;;
6374;SDS011;35400;45.472;-122.822;2023-06-22T08:48:56;2.40;;;1.90;;
6374;SDS011;35400;45.472;-122.822;2023-06-22T08:51:23;3.43;;;2.47;;
6374;SDS011;35400;45.472;-122.822;2023-06-22T08:53:50;3.20;;;1.90;;
6374;SDS011;35400;45.472;-122.822;2023-06-22T08:56:17;2.30;;;2.10;;
6374;SDS011;35400;45.472;-122.822;2023-06-22T08:58:44;3.67;;;2.17;;
6374;SDS011;35400;45.472;-122.822;2023-06-22T09:01:11;3.03;;;1.93;;
6374;SDS011;35400;45.472;-122.822;2023-06-22T09:03:41;3.27;;;2.03;;
6374;SDS011;35400;45.472;-122.822;2023-06-22T09:06:07;3.00;;;2.70;;
6374;SDS011;35400;45.472;-122.822;2023-06-22T09:08:39;2.97;;;2.40;;
6374;SDS011;35400;45.472;-122.822;2023-06-22T09:11:06;1.93;;;1.80;;
6374;SDS011;35400;45.472;-122.822;2023-06-22T09:13:33;2.67;;;2.03;;
6374;SDS011;35400;45.472;-122.822;2023-06-22T09:16:00;2.70;;;2.33;;
6374;SDS011;35400;45.472;-122.822;2023-06-22T09:18:27;2.77;;;2.37;;
6374;SDS011;35400;45.472;-122.822;2023-06-22T09:20:54;3.33;;;2.23;;
6374;SDS011;35400;45.472;-122.822;2023-06-22T09:23:21;3.97;;;2.53;;
6374;SDS011;35400;45.472;-122.822;2023-06-22T09:25:48;2.43;;;2.23;;
6374;SDS011;35400;45.472;-122.822;2023-06-22T09:28:15;2.60;;;2.40;;
6374;SDS011;35400;45.472;-122.822;2023-06-22T09:30:45;2.83;;;2.43;;
6374;SDS011;35400;45.472;-122.822;2023-06-22T09:33:12;1.70;;;1.60;;
6374;SDS011;35400;45.472;-122.822;2023-06-22T09:35:39;2.70;;;2.50;;
6374;SDS011;35400;45.472;-122.822;2023-06-22T09:38:05;4.20;;;2.07;;
6374;SDS011;35400;45.472;-122.822;2023-06-22T09:40:32;2.10;;;1.90;;
6374;SDS011;35400;45.472;-122.822;2023-06-22T09:43:05;2.87;;;2.10;;
6374;SDS011;35400;45.472;-122.822;2023-06-22T09:45:32;3.83;;;2.53;;
6374;SDS011;35400;45.472;-122.822;2023-06-22T09:47:59;2.30;;;2.10;;
6374;SDS011;35400;45.472;-122.822;2023-06-22T09:50:26;2.50;;;1.93;;
6374;SDS011;35400;45.472;-122.822;2023-06-22T09:52:53;2.40;;;2.20;;
6374;SDS011;35400;45.472;-122.822;2023-06-22T09:55:20;3.23;;;2.03;;
6374;SDS011;35400;45.472;-122.822;2023-06-22T09:57:48;3.27;;;2.30;;
6374;SDS011;35400;45.472;-122.822;2023-06-22T10:00:16;3.20;;;2.30;;
6374;SDS011;35400;45.472;-122.822;2023-06-22T10:02:44;3.40;;;1.93;;
6374;SDS011;35400;45.472;-122.822;2023-06-22T10:05:12;2.73;;;1.80;;
6374;SDS011;35400;45.472;-122.822;2023-06-22T10:07:39;2.23;;;2.00;;
6374;SDS011;35400;45.472;-122.822;2023-06-22T10:10:09;2.83;;;1.90;;
6374;SDS011;35400;45.472;-122.822;2023-06-22T10:12:40;3.60;;;2.60;;
6374;SDS011;35400;45.472;-122.822;2023-06-22T10:15:09;2.20;;;2.00;;
6374;SDS011;35400;45.472;-122.822;2023-06-22T10:17:37;2.97;;;2.10;;
6374;SDS011;35400;45.472;-122.822;2023-06-22T10:20:05;3.00;;;2.30;;
6374;SDS011;35400;45.472;-122.822;2023-06-22T10:22:42;3.00;;;2.10;;
6374;SDS011;35400;45.472;-122.822;2023-06-22T10:25:11;3.90;;;2.23;;
6374;SDS011;35400;45.472;-122.822;2023-06-22T10:27:38;2.53;;;2.20;;
6374;SDS011;35400;45.472;-122.822;2023-06-22T10:30:06;2.47;;;2.00;;
6374;SDS011;35400;45.472;-122.822;2023-06-22T10:32:40;2.50;;;2.20;;
6374;SDS011;35400;45.472;-122.822;2023-06-22T10:35:09;2.63;;;2.23;;
6374;SDS011;35400;45.472;-122.822;2023-06-22T10:37:36;2.50;;;2.30;;
6374;SDS011;35400;45.472;-122.822;2023-06-22T10:40:03;3.00;;;2.10;;
6374;SDS011;35400;45.472;-122.822;2023-06-22T10:42:31;3.23;;;2.50;;
6374;SDS011;35400;45.472;-122.822;2023-06-22T10:44:58;3.40;;;2.13;;
6374;SDS011;35400;45.472;-122.822;2023-06-22T10:47:25;3.97;;;2.53;;
6374;SDS011;35400;45.472;-122.822;2023-06-22T10:49:51;2.70;;;2.50;;
6374;SDS011;35400;45.472;-122.822;2023-06-22T10:52:18;3.87;;;2.57;;
6374;SDS011;35400;45.472;-122.822;2023-06-22T10:54:45;2.40;;;2.20;;
6374;SDS011;35400;45.472;-122.822;2023-06-22T10:57:12;2.80;;;2.27;;
6374;SDS011;35400;45.472;-122.822;2023-06-22T10:59:39;4.10;;;1.87;;
6374;SDS011;35400;45.472;-122.822;2023-06-22T11:02:06;2.50;;;2.30;;
6374;SDS011;35400;45.472;-122.822;2023-06-22T11:04:32;4.47;;;2.80;;
6374;SDS011;35400;45.472;-122.822;2023-06-22T11:06:59;3.30;;;2.10;;
6374;SDS011;35400;45.472;-122.822;2023-06-22T11:09:26;3.23;;;2.30;;
6374;SDS011;35400;45.472;-122.822;2023-06-22T11:11:55;4.07;;;2.13;;
6374;SDS011;35400;45.472;-122.822;2023-06-22T11:14:24;2.67;;;2.20;;
6374;SDS011;35400;45.472;-122.822;2023-06-22T11:16:51;3.30;;;2.10;;
6374;SDS011;35400;45.472;-122.822;2023-06-22T11:19:18;2.53;;;2.33;;
6374;SDS011;35400;45.472;-122.822;2023-06-22T11:21:45;4.10;;;2.70;;
6374;SDS011;35400;45.472;-122.822;2023-06-22T11:24:12;2.83;;;2.13;;
6374;SDS011;35400;45.472;-122.822;2023-06-22T11:26:39;3.90;;;2.53;;
6374;SDS011;35400;45.472;-122.822;2023-06-22T11:29:05;3.00;;;2.37;;
6374;SDS011;35400;45.472;-122.822;2023-06-22T11:31:34;2.57;;;2.30;;
6374;SDS011;35400;45.472;-122.822;2023-06-22T11:34:01;4.03;;;2.27;;
6374;SDS011;35400;45.472;-122.822;2023-06-22T11:36:29;3.83;;;2.80;;
6374;SDS011;35400;45.472;-122.822;2023-06-22T11:38:58;3.03;;;2.40;;
6374;SDS011;35400;45.472;-122.822;2023-06-22T11:41:25;2.60;;;2.40;;
6374;SDS011;35400;45.472;-122.822;2023-06-22T11:43:52;5.60;;;2.30;;
6374;SDS011;35400;45.472;-122.822;2023-06-22T11:46:19;3.33;;;2.60;;
6374;SDS011;35400;45.472;-122.822;2023-06-22T11:48:46;4.00;;;2.40;;
6374;SDS011;35400;45.472;-122.822;2023-06-22T11:51:13;4.13;;;2.20;;
6374;SDS011;35400;45.472;-122.822;2023-06-22T11:53:39;2.47;;;2.27;;
6374;SDS011;35400;45.472;-122.822;2023-06-22T11:56:06;4.33;;;2.77;;
6374;SDS011;35400;45.472;-122.822;2023-06-22T11:58:33;3.37;;;2.40;;
6374;SDS011;35400;45.472;-122.822;2023-06-22T12:01:00;3.90;;;2.50;;
6374;SDS011;35400;45.472;-122.822;2023-06-22T12:03:26;3.20;;;2.53;;
6374;SDS011;35400;45.472;-122.822;2023-06-22T12:05:54;5.87;;;2.43;;
6374;SDS011;35400;45.472;-122.822;2023-06-22T12:08:21;3.10;;;2.67;;
6374;SDS011;35400;45.472;-122.822;2023-06-22T12:10:49;3.70;;;2.50;;
6374;SDS011;35400;45.472;-122.822;2023-06-22T12:13:16;2.80;;;2.33;;
6374;SDS011;35400;45.472;-122.822;2023-06-22T12:15:43;2.87;;;2.53;;
6374;SDS011;35400;45.472;-122.822;2023-06-22T12:18:10;3.27;;;2.50;;
6374;SDS011;35400;45.472;-122.822;2023-06-22T12:20:39;2.23;;;2.00;;
6374;SDS011;35400;45.472;-122.822;2023-06-22T12:23:06;3.20;;;2.50;;
6374;SDS011;35400;45.472;-122.822;2023-06-22T12:25:33;2.53;;;2.33;;
6374;SDS011;35400;45.472;-122.822;2023-06-22T12:28:00;3.70;;;2.40;;
6374;SDS011;35400;45.472;-122.822;2023-06-22T12:30:27;3.17;;;2.70;;
6374;SDS011;35400;45.472;-122.822;2023-06-22T12:32:54;3.47;;;2.70;;
6374;SDS011;35400;45.472;-122.822;2023-06-22T12:35:20;3.43;;;2.40;;
6374;SDS011;35400;45.472;-122.822;2023-06-22T12:37:47;4.93;;;2.93;;
6374;SDS011;35400;45.472;-122.822;2023-06-22T12:40:14;3.80;;;2.37;;
6374;SDS011;35400;45.472;-122.822;2023-06-22T12:42:41;2.70;;;2.50;;
6374;SDS011;35400;45.472;-122.822;2023-06-22T12:45:08;3.27;;;2.53;;
6374;SDS011;35400;45.472;-122.822;2023-06-22T12:47:35;3.57;;;2.40;;
6374;SDS011;35400;45.472;-122.822;2023-06-22T12:50:02;2.90;;;2.60;;
6374;SDS011;35400;45.472;-122.822;2023-06-22T12:52:30;2.90;;;2.70;;
6374;SDS011;35400;45.472;-122.822;2023-06-22T12:54:58;3.40;;;2.60;;
6374;SDS011;35400;45.472;-122.822;2023-06-22T12:57:25;2.40;;;2.23;;
6374;SDS011;35400;45.472;-122.822;2023-06-22T12:59:51;2.70;;;2.50;;
6374;SDS011;35400;45.472;-122.822;2023-06-22T13:02:18;3.43;;;2.57;;
6374;SDS011;35400;45.472;-122.822;2023-06-22T13:04:45;3.10;;;2.60;;
6374;SDS011;35400;45.472;-122.822;2023-06-22T13:07:12;3.37;;;2.33;;
6374;SDS011;35400;45.472;-122.822;2023-06-22T13:09:39;2.93;;;2.73;;
6374;SDS011;35400;45.472;-122.822;2023-06-22T13:12:06;2.60;;;2.40;;
6374;SDS011;35400;45.472;-122.822;2023-06-22T13:14:33;2.80;;;2.50;;
6374;SDS011;35400;45.472;-122.822;2023-06-22T13:17:00;3.43;;;2.60;;
6374;SDS011;35400;45.472;-122.822;2023-06-22T13:19:27;3.33;;;2.67;;
6374;SDS011;35400;45.472;-122.822;2023-06-22T13:21:58;3.83;;;2.37;;
6374;SDS011;35400;45.472;-122.822;2023-06-22T13:24:25;3.40;;;2.77;;
6374;SDS011;35400;45.472;-122.822;2023-06-22T13:26:52;3.17;;;2.60;;
6374;SDS011;35400;45.472;-122.822;2023-06-22T13:29:19;3.03;;;2.60;;
6374;SDS011;35400;45.472;-122.822;2023-06-22T13:31:46;3.83;;;2.90;;
6374;SDS011;35400;45.472;-122.822;2023-06-22T13:34:13;2.47;;;2.20;;
6374;SDS011;35400;45.472;-122.822;2023-06-22T13:36:39;3.03;;;2.73;;
6374;SDS011;35400;45.472;-122.822;2023-06-22T13:39:06;3.77;;;2.80;;
6374;SDS011;35400;45.472;-122.822;2023-06-22T13:41:33;4.37;;;2.50;;
6374;SDS011;35400;45.472;-122.822;2023-06-22T13:44:00;2.93;;;2.30;;
6374;SDS011;35400;45.472;-122.822;2023-06-22T13:46:27;3.97;;;2.40;;
6374;SDS011;35400;45.472;-122.822;2023-06-22T13:48:54;2.73;;;2.53;;
6374;SDS011;35400;45.472;-122.822;2023-06-22T13:51:21;2.47;;;2.10;;
6374;SDS011;35400;45.472;-122.822;2023-06-22T13:53:48;2.53;;;2.33;;
6374;SDS011;35400;45.472;-122.822;2023-06-22T13:56:14;2.73;;;2.53;;
6374;SDS011;35400;45.472;-122.822;2023-06-22T13:58:41;4.37;;;2.70;;
6374;SDS011;35400;45.472;-122.822;2023-06-22T14:01:09;3.53;;;2.40;;
6374;SDS011;35400;45.472;-122.822;2023-06-22T14:03:36;3.70;;;2.60;;
6374;SDS011;35400;45.472;-122.822;2023-06-22T14:06:03;3.57;;;2.47;;
6374;SDS011;35400;45.472;-122.822;2023-06-22T14:08:29;5.57;;;3.83;;
6374;SDS011;35400;45.472;-122.822;2023-06-22T14:10:56;4.20;;;3.13;;
6374;SDS011;35400;45.472;-122.822;2023-06-22T14:13:23;2.90;;;2.43;;
6374;SDS011;35400;45.472;-122.822;2023-06-22T14:15:50;2.87;;;2.43;;
6374;SDS011;35400;45.472;-122.822;2023-06-22T14:18:17;3.03;;;2.50;;
6374;SDS011;35400;45.472;-122.822;2023-06-22T14:20:44;2.57;;;2.10;;
6374;SDS011;35400;45.472;-122.822;2023-06-22T14:23:13;4.07;;;2.13;;
6374;SDS011;35400;45.472;-122.822;2023-06-22T14:25:40;2.37;;;2.10;;
6374;SDS011;35400;45.472;-122.822;2023-06-22T14:28:07;3.33;;;2.23;;
6374;SDS011;35400;45.472;-122.822;2023-06-22T14:30:34;2.50;;;2.30;;